Time;durP1;ratioP1;P1;durP2;ratioP2;P2;SDS_P1;SDS_P2;PMS_P1;PMS_P2;Temp;Humidity;BMP_temperature;BMP_pressure;BME280_temperature;BME280_humidity;BME280_pressure;Samples;Min_cycle;Max_cycle;Signal;HPM_P1;HPM_P2
2022/12/10 00:01:45;;;;;;;;;;;0.40;99.90;;;;;;5039946;28;19924;-79
2022/12/10 00:04:11;;;;;;;;;;;0.40;99.90;;;;;;5040776;28;19902;-79
2022/12/10 00:06:37;;;;;;;;;;;0.40;99.90;;;;;;5041010;28;19985;-78
2022/12/10 00:09:04;;;;;;;;;;;0.40;99.90;;;;;;5039029;28;19910;-81
2022/12/10 00:11:29;;;;;;;;;;;0.40;99.90;;;;;;5027861;28;19913;-78
2022/12/10 00:13:55;;;;;;;;;;;0.30;99.90;;;;;;5018214;28;19914;-79
2022/12/10 00:16:21;;;;;;;;;;;0.30;99.90;;;;;;5017088;28;19917;-78
2022/12/10 00:18:48;;;;;;;;;;;0.40;99.90;;;;;;5017708;28;20278;-77
2022/12/10 00:21:18;;;;;;;;;;;0.40;99.90;;;;;;5017462;28;19964;-77
2022/12/10 00:23:44;;;;;;;;;;;0.40;99.90;;;;;;5018031;28;19921;-77
2022/12/10 00:26:10;;;;;;;;;;;0.40;99.90;;;;;;5017555;28;19909;-77
2022/12/10 00:28:36;;;;;;;;;;;0.40;99.90;;;;;;5017827;28;19910;-79
2022/12/10 00:31:05;;;;;;;;;;;0.50;99.90;;;;;;5015699;28;19917;-81
2022/12/10 00:33:30;;;;;;;;;;;0.50;99.90;;;;;;5014089;28;20011;-76
2022/12/10 00:36:00;;;;;;;;;;;0.60;99.90;;;;;;5014223;28;19995;-78
2022/12/10 00:38:26;;;;;;;;;;;0.60;99.90;;;;;;5014593;28;19941;-78
2022/12/10 00:40:51;;;;;;;;;;;0.70;99.90;;;;;;5014372;28;20318;-77
2022/12/10 00:43:17;;;;;;;;;;;0.70;99.90;;;;;;5013850;28;19920;-78
2022/12/10 00:45:42;;;;;;;;;;;0.80;99.90;;;;;;5014223;28;20094;-76
2022/12/10 00:48:08;;;;;;;;;;;0.80;99.90;;;;;;5014487;28;19983;-79
2022/12/10 00:50:33;;;;;;;;;;;0.80;99.90;;;;;;5013637;28;19917;-78
2022/12/10 00:52:59;;;;;;;;;;;0.80;99.90;;;;;;5014435;28;20292;-79
2022/12/10 00:55:24;;;;;;;;;;;0.80;99.90;;;;;;5013788;28;19966;-79
2022/12/10 00:57:50;;;;;;;;;;;0.90;99.90;;;;;;5012739;28;19932;-79
2022/12/10 01:00:16;;;;;;;;;;;0.80;99.90;;;;;;5013725;28;19925;-77
2022/12/10 01:02:41;;;;;;;;;;;0.90;99.90;;;;;;5015032;28;20335;-78
2022/12/10 01:05:07;;;;;;;;;;;0.90;99.90;;;;;;5013905;28;20278;-80
2022/12/10 01:07:32;;;;;;;;;;;0.90;99.90;;;;;;5014741;28;19921;-78
2022/12/10 01:09:58;;;;;;;;;;;0.90;99.90;;;;;;5013312;28;20247;-78
2022/12/10 01:12:24;;;;;;;;;;;0.90;99.90;;;;;;5014235;28;19972;-78
2022/12/10 01:14:49;;;;;;;;;;;0.90;99.90;;;;;;5014388;28;19917;-79
2022/12/10 01:17:15;;;;;;;;;;;0.90;99.90;;;;;;5013686;28;19918;-78
2022/12/10 01:19:40;;;;;;;;;;;0.90;99.90;;;;;;5014546;28;19939;-78
2022/12/10 01:22:06;;;;;;;;;;;1.00;99.90;;;;;;5012486;28;20479;-82
2022/12/10 01:24:31;;;;;;;;;;;1.00;99.90;;;;;;5013784;28;19999;-78
2022/12/10 01:26:58;;;;;;;;;;;0.90;99.90;;;;;;5014019;28;19917;-78
2022/12/10 01:29:24;;;;;;;;;;;1.00;99.90;;;;;;5013639;28;19909;-78
2022/12/10 01:31:51;;;;;;;;;;;0.90;99.90;;;;;;5014072;28;19910;-77
2022/12/10 01:34:16;;;;;;;;;;;1.00;99.90;;;;;;5012199;28;19954;-78
2022/12/10 01:36:42;;;;;;;;;;;0.90;99.90;;;;;;5014179;28;19928;-78
2022/12/10 01:39:09;;;;;;;;;;;0.90;99.90;;;;;;5013919;28;20363;-80
2022/12/10 01:41:36;;;;;;;;;;;1.00;99.90;;;;;;5013612;28;20053;-78
2022/12/10 01:44:08;;;;;;;;;;;0.90;99.90;;;;;;5013604;28;19968;-78
2022/12/10 01:46:41;;;;;;;;;;;1.00;99.90;;;;;;5013589;28;19949;-77
2022/12/10 01:49:08;;;;;;;;;;;1.00;99.90;;;;;;5013826;28;20012;-81
2022/12/10 01:51:35;;;;;;;;;;;0.90;99.90;;;;;;5013464;28;19910;-78
2022/12/10 01:54:02;;;;;;;;;;;0.90;99.90;;;;;;5013926;28;19980;-78
2022/12/10 01:56:28;;;;;;;;;;;1.00;99.90;;;;;;5012471;28;19914;-78
2022/12/10 01:58:55;;;;;;;;;;;0.90;99.90;;;;;;5013235;28;20351;-77
2022/12/10 02:01:25;;;;;;;;;;;0.90;99.90;;;;;;5013086;28;19909;-77
2022/12/10 02:03:56;;;;;;;;;;;0.80;99.90;;;;;;5013693;28;19995;-77
2022/12/10 02:06:24;;;;;;;;;;;0.80;99.90;;;;;;5012752;28;19910;-78
2022/12/10 02:08:56;;;;;;;;;;;0.80;99.90;;;;;;5013013;28;19928;-79
2022/12/10 02:11:29;;;;;;;;;;;0.70;99.90;;;;;;5012995;28;19931;-78
2022/12/10 02:13:54;;;;;;;;;;;0.70;99.90;;;;;;5014059;28;19914;-79
2022/12/10 02:16:29;;;;;;;;;;;0.70;99.90;;;;;;5012816;28;19964;-77
2022/12/10 02:18:58;;;;;;;;;;;0.60;99.90;;;;;;5012073;28;19910;-79
2022/12/10 02:21:28;;;;;;;;;;;0.60;99.90;;;;;;5011288;28;20279;-77
2022/12/10 02:23:55;;;;;;;;;;;0.60;99.90;;;;;;5012981;28;19909;-78
2022/12/10 02:26:29;;;;;;;;;;;0.50;99.90;;;;;;5013018;28;19925;-77
2022/12/10 02:29:06;;;;;;;;;;;0.50;99.90;;;;;;5012994;28;19952;-78
2022/12/10 02:31:33;;;;;;;;;;;0.50;99.90;;;;;;5012510;28;20394;-79
2022/12/10 02:33:59;;;;;;;;;;;0.50;99.90;;;;;;5012924;28;20014;-77
2022/12/10 02:36:26;;;;;;;;;;;0.50;99.90;;;;;;5012513;28;20064;-78
2022/12/10 02:38:52;;;;;;;;;;;0.50;99.90;;;;;;5012530;28;19913;-79
2022/12/10 02:41:22;;;;;;;;;;;0.50;99.90;;;;;;5012104;28;20367;-79
2022/12/10 02:43:49;;;;;;;;;;;0.50;99.90;;;;;;5012516;28;19913;-78
2022/12/10 02:46:15;;;;;;;;;;;0.50;99.90;;;;;;5012343;28;19967;-78
2022/12/10 02:48:41;;;;;;;;;;;0.50;99.90;;;;;;5012499;28;19997;-78
2022/12/10 02:51:07;;;;;;;;;;;0.50;99.90;;;;;;5012332;28;19914;-78
2022/12/10 02:53:32;;;;;;;;;;;0.50;99.90;;;;;;5010934;28;19905;-77
2022/12/10 02:56:12;;;;;;;;;;;0.60;99.90;;;;;;5012282;28;20209;-77
2022/12/10 02:58:41;;;;;;;;;;;0.60;99.90;;;;;;5012540;28;19930;-78
2022/12/10 03:01:12;;;;;;;;;;;0.60;99.90;;;;;;5012918;28;19917;-78
2022/12/10 03:03:44;;;;;;;;;;;0.60;99.90;;;;;;5010612;28;20275;-78
2022/12/10 03:06:13;;;;;;;;;;;0.70;99.90;;;;;;5012398;28;19916;-78
2022/12/10 03:08:54;;;;;;;;;;;0.60;99.90;;;;;;5012973;28;19910;-78
2022/12/10 03:11:21;;;;;;;;;;;0.70;99.90;;;;;;5012036;28;20015;-78
2022/12/10 03:13:47;;;;;;;;;;;0.70;99.90;;;;;;5012637;28;20092;-77
2022/12/10 03:16:13;;;;;;;;;;;0.70;99.90;;;;;;5012205;28;20058;-80
2022/12/10 03:18:39;;;;;;;;;;;0.60;99.90;;;;;;5012515;28;19909;-77
2022/12/10 03:21:06;;;;;;;;;;;0.60;99.90;;;;;;5012169;28;19916;-78
2022/12/10 03:23:34;;;;;;;;;;;0.60;99.90;;;;;;5010299;28;19932;-77
2022/12/10 03:26:00;;;;;;;;;;;0.60;99.90;;;;;;5012374;28;20057;-78
2022/12/10 03:28:26;;;;;;;;;;;0.60;99.90;;;;;;5011809;28;19960;-77
2022/12/10 03:30:53;;;;;;;;;;;0.70;99.90;;;;;;5012624;28;19944;-78
2022/12/10 03:33:19;;;;;;;;;;;0.60;99.90;;;;;;5012858;28;19909;-77
2022/12/10 03:35:44;;;;;;;;;;;0.60;99.90;;;;;;5011923;28;19933;-78
2022/12/10 03:38:10;;;;;;;;;;;0.60;99.90;;;;;;5011883;28;19916;-79
2022/12/10 03:40:36;;;;;;;;;;;0.60;99.90;;;;;;5011841;28;19913;-78
2022/12/10 03:43:02;;;;;;;;;;;0.60;99.90;;;;;;5011801;28;19910;-78
2022/12/10 03:45:28;;;;;;;;;;;0.50;99.90;;;;;;5011831;28;20299;-77
2022/12/10 03:47:53;;;;;;;;;;;0.50;99.90;;;;;;5011624;28;19909;-78
2022/12/10 03:50:19;;;;;;;;;;;0.50;99.90;;;;;;5011483;28;19910;-79
2022/12/10 03:52:44;;;;;;;;;;;0.60;99.90;;;;;;5010682;28;20363;-78
2022/12/10 03:55:10;;;;;;;;;;;0.50;99.90;;;;;;5011721;28;20008;-79
2022/12/10 03:57:36;;;;;;;;;;;0.50;99.90;;;;;;5011646;28;19937;-78
2022/12/10 04:00:03;;;;;;;;;;;0.50;99.90;;;;;;5011864;28;20375;-78
2022/12/10 04:02:28;;;;;;;;;;;0.50;99.90;;;;;;5011453;28;19910;-78
2022/12/10 04:04:54;;;;;;;;;;;0.50;99.90;;;;;;5011670;28;19989;-78
2022/12/10 04:07:19;;;;;;;;;;;0.50;99.90;;;;;;5012363;28;19928;-79
2022/12/10 04:09:45;;;;;;;;;;;0.50;99.90;;;;;;5014079;28;19916;-79
2022/12/10 04:12:11;;;;;;;;;;;0.50;99.90;;;;;;5015616;28;19917;-78
2022/12/10 04:17:20;;;;;;;;;;;0.60;99.90;;;;;;5014851;28;19924;-79
2022/12/10 04:19:46;;;;;;;;;;;0.60;99.90;;;;;;5015097;28;19909;-78
2022/12/10 04:27:39;;;;;;;;;;;0.60;99.90;;;;;;5033653;28;20087;-78
2022/12/10 04:30:07;;;;;;;;;;;0.60;99.90;;;;;;5036872;28;19910;-77
2022/12/10 04:32:32;;;;;;;;;;;0.60;99.90;;;;;;5036514;28;19944;-77
2022/12/10 04:34:58;;;;;;;;;;;0.60;99.90;;;;;;5036579;28;19916;-77
2022/12/10 04:37:26;;;;;;;;;;;0.60;99.90;;;;;;5034684;28;20124;-78
2022/12/10 04:39:52;;;;;;;;;;;0.60;99.90;;;;;;5034920;28;19913;-77
2022/12/10 04:42:18;;;;;;;;;;;0.60;99.90;;;;;;5024829;28;19909;-78
2022/12/10 04:44:44;;;;;;;;;;;0.60;99.90;;;;;;5021701;28;19913;-78
2022/12/10 04:47:10;;;;;;;;;;;0.70;99.90;;;;;;5018466;28;19932;-78
2022/12/10 04:49:36;;;;;;;;;;;0.70;99.90;;;;;;5018502;28;20000;-78
2022/12/10 04:52:02;;;;;;;;;;;0.70;99.90;;;;;;5018212;28;19962;-78
2022/12/10 04:54:28;;;;;;;;;;;0.70;99.90;;;;;;5016605;28;20004;-79
2022/12/10 04:56:54;;;;;;;;;;;0.70;99.90;;;;;;5016673;28;19975;-78
2022/12/10 04:59:19;;;;;;;;;;;0.80;99.90;;;;;;5016704;28;20359;-79
2022/12/10 05:01:45;;;;;;;;;;;0.80;99.90;;;;;;5016889;28;19931;-78
2022/12/10 05:04:12;;;;;;;;;;;0.80;99.90;;;;;;5016234;28;20256;-78
2022/12/10 05:06:38;;;;;;;;;;;0.80;99.90;;;;;;5015266;28;19916;-78
2022/12/10 05:09:03;;;;;;;;;;;0.80;99.90;;;;;;5015387;28;19910;-78
2022/12/10 05:11:30;;;;;;;;;;;0.80;99.90;;;;;;5015493;28;20358;-79
2022/12/10 05:13:56;;;;;;;;;;;0.80;99.90;;;;;;5016617;28;19973;-78
2022/12/10 05:16:22;;;;;;;;;;;0.80;99.90;;;;;;5014489;28;20001;-81
2022/12/10 05:18:48;;;;;;;;;;;0.80;99.90;;;;;;5015531;28;19916;-77
2022/12/10 05:21:14;;;;;;;;;;;0.80;99.90;;;;;;5016380;28;19910;-78
2022/12/10 05:23:42;;;;;;;;;;;0.80;99.90;;;;;;5014635;28;19920;-78
2022/12/10 05:26:12;;;;;;;;;;;0.80;99.90;;;;;;5015896;28;19996;-78
2022/12/10 05:28:42;;;;;;;;;;;0.80;99.90;;;;;;5015137;28;19910;-78
2022/12/10 05:31:11;;;;;;;;;;;0.80;99.90;;;;;;5015711;28;19909;-77
2022/12/10 05:33:37;;;;;;;;;;;0.90;99.90;;;;;;5015026;28;19921;-78
2022/12/10 05:36:03;;;;;;;;;;;0.80;99.90;;;;;;5013585;28;19921;-78
2022/12/10 05:38:30;;;;;;;;;;;0.90;99.90;;;;;;5014899;28;19914;-79
2022/12/10 05:41:00;;;;;;;;;;;0.90;99.90;;;;;;5015083;28;19963;-78
2022/12/10 05:43:25;;;;;;;;;;;0.90;99.90;;;;;;5014026;28;20005;-79
2022/12/10 05:45:51;;;;;;;;;;;0.90;99.90;;;;;;5014852;28;19910;-78
2022/12/10 05:48:16;;;;;;;;;;;0.90;99.90;;;;;;5014793;28;20312;-79
2022/12/10 05:50:42;;;;;;;;;;;0.90;99.90;;;;;;5014517;28;19909;-77
2022/12/10 05:53:08;;;;;;;;;;;0.90;99.90;;;;;;5014852;28;19992;-78
2022/12/10 05:55:33;;;;;;;;;;;0.90;99.90;;;;;;5013875;28;19984;-78
2022/12/10 05:57:59;;;;;;;;;;;0.90;99.90;;;;;;5014823;28;19955;-78
2022/12/10 06:00:26;;;;;;;;;;;0.90;99.90;;;;;;5014013;28;19909;-80
2022/12/10 06:02:52;;;;;;;;;;;0.90;99.90;;;;;;5014525;28;19917;-77
2022/12/10 06:05:18;;;;;;;;;;;0.90;99.90;;;;;;5014478;28;20000;-78
2022/12/10 06:07:43;;;;;;;;;;;0.90;99.90;;;;;;5014078;28;19963;-76
2022/12/10 06:10:09;;;;;;;;;;;0.90;99.90;;;;;;5014281;28;19910;-78
2022/12/10 06:12:35;;;;;;;;;;;0.90;99.90;;;;;;5014380;28;20055;-79
2022/12/10 06:15:00;;;;;;;;;;;0.90;99.90;;;;;;5014822;28;19909;-78
2022/12/10 06:17:26;;;;;;;;;;;0.90;99.90;;;;;;5014088;28;20285;-81
2022/12/10 06:19:51;;;;;;;;;;;0.90;99.90;;;;;;5014460;28;19910;-79
2022/12/10 06:22:17;;;;;;;;;;;0.90;99.90;;;;;;5012666;28;20355;-79
2022/12/10 06:24:43;;;;;;;;;;;0.90;99.90;;;;;;5014064;28;19961;-78
2022/12/10 06:27:08;;;;;;;;;;;0.90;99.90;;;;;;5014760;28;19917;-78
2022/12/10 06:29:34;;;;;;;;;;;0.90;99.90;;;;;;5013147;28;19932;-78
2022/12/10 06:31:59;;;;;;;;;;;0.90;99.90;;;;;;5013166;28;20378;-78
2022/12/10 06:34:25;;;;;;;;;;;0.90;99.90;;;;;;5013948;28;19999;-77
2022/12/10 06:36:50;;;;;;;;;;;0.90;99.90;;;;;;5014162;28;19921;-78
2022/12/10 06:39:16;;;;;;;;;;;0.90;99.90;;;;;;5014746;28;19929;-78
2022/12/10 06:41:43;;;;;;;;;;;0.90;99.90;;;;;;5013501;28;20004;-77
2022/12/10 06:44:12;;;;;;;;;;;1.00;99.90;;;;;;5014061;28;20037;-77
2022/12/10 06:46:38;;;;;;;;;;;0.90;99.90;;;;;;5013657;28;19913;-78
2022/12/10 06:49:04;;;;;;;;;;;1.00;99.90;;;;;;5014438;28;20379;-78
2022/12/10 06:51:29;;;;;;;;;;;1.00;99.90;;;;;;5013909;28;19921;-81
2022/12/10 06:53:55;;;;;;;;;;;0.90;99.90;;;;;;5014847;28;19914;-77
2022/12/10 06:56:21;;;;;;;;;;;1.00;99.90;;;;;;5013673;28;20008;-78
2022/12/10 06:58:47;;;;;;;;;;;1.00;99.90;;;;;;5013184;28;19913;-77
2022/12/10 07:01:14;;;;;;;;;;;1.00;99.90;;;;;;5013859;28;19921;-77
2022/12/10 07:03:40;;;;;;;;;;;1.00;99.90;;;;;;5013951;28;20221;-78
2022/12/10 07:06:07;;;;;;;;;;;1.00;99.90;;;;;;5014408;28;19921;-78
2022/12/10 07:08:32;;;;;;;;;;;1.00;99.90;;;;;;5013760;28;20026;-78
2022/12/10 07:10:58;;;;;;;;;;;0.90;99.90;;;;;;5013715;28;20256;-78
2022/12/10 07:13:24;;;;;;;;;;;1.00;99.90;;;;;;5013539;28;19952;-77
2022/12/10 07:15:49;;;;;;;;;;;1.00;99.90;;;;;;5013353;28;20004;-78
2022/12/10 07:18:15;;;;;;;;;;;1.00;99.90;;;;;;5013530;28;19909;-77
2022/12/10 07:20:40;;;;;;;;;;;1.00;99.90;;;;;;5013083;28;19997;-78
2022/12/10 07:23:06;;;;;;;;;;;1.00;99.90;;;;;;5013776;28;19948;-78
2022/12/10 07:25:32;;;;;;;;;;;1.00;99.90;;;;;;5012588;28;20077;-79
2022/12/10 07:27:57;;;;;;;;;;;1.00;99.90;;;;;;5013258;28;19913;-78
2022/12/10 07:30:23;;;;;;;;;;;1.00;99.90;;;;;;5013314;28;19917;-78
2022/12/10 07:32:48;;;;;;;;;;;1.00;99.90;;;;;;5013012;28;19959;-79
2022/12/10 07:35:14;;;;;;;;;;;1.00;99.90;;;;;;5013101;28;19964;-77
2022/12/10 07:37:40;;;;;;;;;;;1.00;99.90;;;;;;5012503;28;20255;-78
2022/12/10 07:40:05;;;;;;;;;;;1.00;99.90;;;;;;5012490;28;19910;-78
2022/12/10 07:42:31;;;;;;;;;;;1.00;99.90;;;;;;5015703;28;19910;-79
2022/12/10 07:44:56;;;;;;;;;;;1.00;99.90;;;;;;5016313;28;19983;-78
2022/12/10 07:47:22;;;;;;;;;;;1.00;99.90;;;;;;5015602;28;20200;-77
2022/12/10 07:49:47;;;;;;;;;;;1.00;99.90;;;;;;5015597;28;19909;-77
2022/12/10 07:52:13;;;;;;;;;;;1.00;99.90;;;;;;5016504;28;19910;-77
2022/12/10 07:54:39;;;;;;;;;;;1.00;99.90;;;;;;5016563;28;19917;-78
2022/12/10 07:57:04;;;;;;;;;;;1.00;99.90;;;;;;5016840;28;20223;-78
2022/12/10 07:59:30;;;;;;;;;;;1.00;99.90;;;;;;5016639;28;20056;-78
2022/12/10 08:01:56;;;;;;;;;;;1.00;99.90;;;;;;5014763;28;19910;-78
2022/12/10 08:04:22;;;;;;;;;;;1.00;99.90;;;;;;5017038;28;19916;-77
2022/12/10 08:06:47;;;;;;;;;;;1.00;99.90;;;;;;5016682;28;19910;-78
2022/12/10 08:09:13;;;;;;;;;;;1.00;99.90;;;;;;5016844;28;19952;-79
2022/12/10 08:11:38;;;;;;;;;;;1.00;99.90;;;;;;5014640;28;20373;-79
2022/12/10 08:14:04;;;;;;;;;;;1.00;99.90;;;;;;5015806;28;19917;-78
2022/12/10 08:16:30;;;;;;;;;;;1.00;99.90;;;;;;5015613;28;19933;-78
2022/12/10 08:18:57;;;;;;;;;;;1.00;99.90;;;;;;5015757;28;19909;-77
2022/12/10 08:21:24;;;;;;;;;;;1.10;99.90;;;;;;5016036;28;19914;-78
2022/12/10 08:23:49;;;;;;;;;;;1.10;99.90;;;;;;5015611;28;19910;-76
2022/12/10 08:26:16;;;;;;;;;;;1.10;99.90;;;;;;5016025;28;19921;-77
2022/12/10 08:28:42;;;;;;;;;;;1.10;99.90;;;;;;5015098;28;19909;-78
2022/12/10 08:31:09;;;;;;;;;;;1.10;99.90;;;;;;5016186;28;19986;-77
2022/12/10 08:33:35;;;;;;;;;;;1.10;99.90;;;;;;5015631;28;20007;-80
2022/12/10 08:36:01;;;;;;;;;;;1.10;99.90;;;;;;5015024;28;19921;-77
2022/12/10 08:38:27;;;;;;;;;;;1.10;99.90;;;;;;5015494;28;19964;-77
2022/12/10 08:40:53;;;;;;;;;;;1.10;99.90;;;;;;5014916;28;19961;-78
2022/12/10 08:43:18;;;;;;;;;;;1.10;99.90;;;;;;5014959;28;19920;-77
2022/12/10 08:45:44;;;;;;;;;;;1.10;99.90;;;;;;5014341;28;19916;-78
2022/12/10 08:48:10;;;;;;;;;;;1.10;99.90;;;;;;5014029;28;20373;-78
2022/12/10 08:50:36;;;;;;;;;;;1.10;99.90;;;;;;5027136;28;19909;-83
2022/12/10 08:53:01;;;;;;;;;;;1.10;99.90;;;;;;5033684;28;19913;-77
2022/12/10 08:55:27;;;;;;;;;;;1.10;99.90;;;;;;5034602;28;19953;-78
2022/12/10 08:57:52;;;;;;;;;;;1.10;99.90;;;;;;5034501;28;19897;-77
2022/12/10 09:00:18;;;;;;;;;;;1.10;99.90;;;;;;5033669;28;19969;-77
2022/12/10 09:02:44;;;;;;;;;;;1.10;99.90;;;;;;5031170;28;19898;-77
2022/12/10 09:05:10;;;;;;;;;;;1.10;99.90;;;;;;5020885;28;20004;-78
2022/12/10 09:07:35;;;;;;;;;;;1.10;99.90;;;;;;5015580;28;20282;-78
2022/12/10 09:10:01;;;;;;;;;;;1.10;99.90;;;;;;5013038;28;19909;-77
2022/12/10 09:12:27;;;;;;;;;;;1.10;99.90;;;;;;5014703;28;20007;-79
2022/12/10 09:14:52;;;;;;;;;;;1.10;99.90;;;;;;5014513;28;20279;-79
2022/12/10 09:17:18;;;;;;;;;;;1.10;99.90;;;;;;5014614;28;19917;-78
2022/12/10 09:19:44;;;;;;;;;;;1.10;99.90;;;;;;5014177;28;19909;-77
2022/12/10 09:22:09;;;;;;;;;;;1.10;99.90;;;;;;5014840;28;19910;-77
2022/12/10 09:24:35;;;;;;;;;;;1.10;99.90;;;;;;5013418;28;20311;-78
2022/12/10 09:27:02;;;;;;;;;;;1.10;99.90;;;;;;5013931;28;19956;-78
2022/12/10 09:29:28;;;;;;;;;;;1.10;99.90;;;;;;5014476;28;20062;-78
2022/12/10 09:31:54;;;;;;;;;;;1.10;99.90;;;;;;5014409;28;20216;-79
2022/12/10 09:34:20;;;;;;;;;;;1.10;99.90;;;;;;5014734;28;20001;-78
2022/12/10 09:36:46;;;;;;;;;;;1.20;99.90;;;;;;5014050;28;20362;-79
2022/12/10 09:39:12;;;;;;;;;;;1.10;99.90;;;;;;5012911;28;19909;-78
2022/12/10 09:42:01;;;;;;;;;;;1.20;99.90;;;;;;5013868;28;19913;-78
2022/12/10 09:44:39;;;;;;;;;;;1.20;99.90;;;;;;5007636;28;19921;-78
2022/12/10 09:47:07;;;;;;;;;;;1.20;99.90;;;;;;5013339;28;19909;-78
2022/12/10 09:49:52;;;;;;;;;;;1.20;99.90;;;;;;5013908;28;20376;-78
2022/12/10 09:52:19;;;;;;;;;;;1.30;99.90;;;;;;5013553;28;20020;-77
2022/12/10 09:54:50;;;;;;;;;;;1.30;99.90;;;;;;5013190;28;19917;-79
2022/12/10 09:57:19;;;;;;;;;;;1.20;99.90;;;;;;5013412;28;19923;-78
2022/12/10 09:59:47;;;;;;;;;;;1.30;99.90;;;;;;5012922;28;20339;-79
2022/12/10 10:02:28;;;;;;;;;;;1.30;99.90;;;;;;5012191;28;20295;-78
2022/12/10 10:04:55;;;;;;;;;;;1.30;99.90;;;;;;5013194;28;19914;-78
2022/12/10 10:07:26;;;;;;;;;;;1.40;99.90;;;;;;5014006;28;19979;-78
2022/12/10 10:09:59;;;;;;;;;;;1.40;99.90;;;;;;5013751;28;19909;-78
2022/12/10 10:12:30;;;;;;;;;;;1.40;99.90;;;;;;5013874;28;19910;-79
2022/12/10 10:14:55;;;;;;;;;;;1.40;99.90;;;;;;5013715;28;19936;-78
2022/12/10 10:17:21;;;;;;;;;;;1.50;99.90;;;;;;5013368;28;19917;-79
2022/12/10 10:19:46;;;;;;;;;;;1.50;99.90;;;;;;5013028;28;19944;-79
2022/12/10 10:22:12;;;;;;;;;;;1.50;99.90;;;;;;5012916;28;19910;-79
2022/12/10 10:24:40;;;;;;;;;;;1.50;99.90;;;;;;5011188;28;19916;-78
2022/12/10 10:27:14;;;;;;;;;;;1.50;99.90;;;;;;5012534;28;19910;-79
2022/12/10 10:29:39;;;;;;;;;;;1.50;99.90;;;;;;5011362;28;20274;-79
2022/12/10 10:32:14;;;;;;;;;;;1.50;99.90;;;;;;5012466;28;19975;-79
2022/12/10 10:34:40;;;;;;;;;;;1.50;99.90;;;;;;5012408;28;20044;-79
2022/12/10 10:37:06;;;;;;;;;;;1.50;99.90;;;;;;5012510;28;20038;-77
2022/12/10 10:39:35;;;;;;;;;;;1.50;99.90;;;;;;5012151;28;19909;-77
2022/12/10 10:42:07;;;;;;;;;;;1.50;99.90;;;;;;5011841;28;20005;-78
2022/12/10 10:44:35;;;;;;;;;;;1.50;99.90;;;;;;5011980;28;19910;-77
2022/12/10 10:47:00;;;;;;;;;;;1.50;99.90;;;;;;5011257;28;19910;-77
2022/12/10 10:49:27;;;;;;;;;;;1.50;99.90;;;;;;5012138;28;19927;-77
2022/12/10 10:51:57;;;;;;;;;;;1.50;99.90;;;;;;5011881;28;19910;-78
2022/12/10 10:54:42;;;;;;;;;;;1.50;99.90;;;;;;5012310;28;20004;-78
2022/12/10 10:57:17;;;;;;;;;;;1.50;99.90;;;;;;5011835;28;20221;-78
2022/12/10 10:59:42;;;;;;;;;;;1.50;99.90;;;;;;5012057;28;19917;-79
2022/12/10 11:02:26;;;;;;;;;;;1.50;99.90;;;;;;5011544;28;19913;-78
2022/12/10 11:04:58;;;;;;;;;;;1.50;99.90;;;;;;5011564;28;19921;-78
2022/12/10 11:07:30;;;;;;;;;;;1.50;99.90;;;;;;5011849;28;20355;-78
2022/12/10 11:09:55;;;;;;;;;;;1.60;99.90;;;;;;5011490;28;19985;-78
2022/12/10 11:12:35;;;;;;;;;;;1.60;99.90;;;;;;5011695;28;20084;-78
2022/12/10 11:15:01;;;;;;;;;;;1.60;99.90;;;;;;5010392;28;20298;-79
2022/12/10 11:17:27;;;;;;;;;;;1.70;99.90;;;;;;5010933;28;20287;-78
2022/12/10 11:19:52;;;;;;;;;;;1.70;99.90;;;;;;5011164;28;19913;-79
2022/12/10 11:22:21;;;;;;;;;;;1.70;99.90;;;;;;5012116;28;20403;-79
2022/12/10 11:24:47;;;;;;;;;;;1.80;99.90;;;;;;5012326;28;19913;-83
2022/12/10 11:27:16;;;;;;;;;;;1.80;99.90;;;;;;5010617;28;19910;-79
2022/12/10 11:29:53;;;;;;;;;;;1.90;99.90;;;;;;5011687;28;19932;-78
2022/12/10 11:32:25;;;;;;;;;;;1.90;99.90;;;;;;5012063;28;20365;-79
2022/12/10 11:35:03;;;;;;;;;;;2.10;99.90;;;;;;5011959;28;19921;-80
2022/12/10 11:37:42;;;;;;;;;;;2.20;99.90;;;;;;5011863;28;20020;-80
2022/12/10 11:40:14;;;;;;;;;;;2.10;99.90;;;;;;5013068;28;20588;-79
2022/12/10 11:42:42;;;;;;;;;;;2.20;99.90;;;;;;5011940;28;20357;-79
2022/12/10 11:45:29;;;;;;;;;;;2.20;99.90;;;;;;5011241;28;19996;-80
2022/12/10 11:48:08;;;;;;;;;;;2.20;99.90;;;;;;5011039;28;20000;-81
2022/12/10 11:50:34;;;;;;;;;;;2.20;99.90;;;;;;5010954;28;19913;-79
2022/12/10 11:53:18;;;;;;;;;;;2.10;99.90;;;;;;5011467;28;20435;-80
2022/12/10 11:55:54;;;;;;;;;;;2.10;99.90;;;;;;5010933;28;20009;-80
2022/12/10 11:58:30;;;;;;;;;;;2.10;99.90;;;;;;5012168;28;19909;-84
2022/12/10 12:00:55;;;;;;;;;;;2.10;99.90;;;;;;5012403;28;19960;-83
2022/12/10 12:03:31;;;;;;;;;;;2.00;99.90;;;;;;5012855;28;19910;-84
2022/12/10 12:06:02;;;;;;;;;;;2.00;99.90;;;;;;5011858;28;20221;-86
2022/12/10 12:08:34;;;;;;;;;;;2.00;99.90;;;;;;5011741;28;19909;-88
2022/12/10 12:11:06;;;;;;;;;;;2.00;99.90;;;;;;5009955;28;19909;-87
2022/12/10 12:13:34;;;;;;;;;;;2.00;99.90;;;;;;5010865;28;20239;-88
2022/12/10 12:16:06;;;;;;;;;;;1.90;99.90;;;;;;5011904;28;19929;-89
2022/12/10 12:18:32;;;;;;;;;;;1.90;99.90;;;;;;5012683;28;19917;-88
2022/12/10 12:21:01;;;;;;;;;;;1.90;99.90;;;;;;5011713;28;19910;-86
2022/12/10 12:23:29;;;;;;;;;;;1.90;99.90;;;;;;5010487;28;19940;-87
2022/12/10 12:26:03;;;;;;;;;;;1.90;99.90;;;;;;5012879;28;19909;-88
2022/12/10 12:28:41;;;;;;;;;;;1.90;99.90;;;;;;5013553;28;19910;-86
2022/12/10 12:31:16;;;;;;;;;;;1.80;99.90;;;;;;5015234;28;19914;-84
2022/12/10 12:33:46;;;;;;;;;;;1.80;99.90;;;;;;5014085;28;20014;-85
2022/12/10 12:36:17;;;;;;;;;;;1.80;99.90;;;;;;5015310;28;19928;-85
2022/12/10 12:38:48;;;;;;;;;;;1.90;99.90;;;;;;5015419;28;19934;-85
2022/12/10 12:41:24;;;;;;;;;;;1.80;99.90;;;;;;5014896;28;19909;-85
2022/12/10 12:43:58;;;;;;;;;;;1.90;99.90;;;;;;5015403;28;19910;-85
2022/12/10 12:46:32;;;;;;;;;;;1.80;99.90;;;;;;5017844;28;19945;-84
2022/12/10 12:49:01;;;;;;;;;;;1.80;99.90;;;;;;5017197;28;19916;-85
2022/12/10 12:51:30;;;;;;;;;;;1.80;99.90;;;;;;5016828;28;19914;-84
2022/12/10 12:53:55;;;;;;;;;;;1.80;99.90;;;;;;5017678;28;19968;-85
2022/12/10 12:56:24;;;;;;;;;;;1.80;99.90;;;;;;5016578;28;19922;-85
2022/12/10 12:59:01;;;;;;;;;;;1.70;99.90;;;;;;5030780;28;19956;-85
2022/12/10 13:01:38;;;;;;;;;;;1.70;99.90;;;;;;5038190;28;19913;-84
2022/12/10 13:04:04;;;;;;;;;;;1.80;99.90;;;;;;5037879;28;19901;-84
2022/12/10 13:06:31;;;;;;;;;;;1.70;99.90;;;;;;5038792;28;19969;-84
2022/12/10 13:09:15;;;;;;;;;;;1.80;99.90;;;;;;5038445;28;19965;-83
2022/12/10 13:11:42;;;;;;;;;;;1.80;99.90;;;;;;5036776;28;19913;-84
2022/12/10 13:14:07;;;;;;;;;;;1.70;99.90;;;;;;5023402;28;19913;-84
2022/12/10 13:16:46;;;;;;;;;;;1.80;99.90;;;;;;5021270;28;19924;-84
2022/12/10 13:19:20;;;;;;;;;;;1.80;99.90;;;;;;5020835;28;19909;-84
2022/12/10 13:22:16;;;;;;;;;;;1.80;99.90;;;;;;5020312;28;19940;-84
2022/12/10 13:24:41;;;;;;;;;;;1.80;99.90;;;;;;4982403;28;19973;-83
2022/12/10 13:27:07;;;;;;;;;;;1.90;99.90;;;;;;5018755;28;19913;-83
2022/12/10 13:29:48;;;;;;;;;;;1.90;99.90;;;;;;5017815;28;19909;-84
2022/12/10 13:32:15;;;;;;;;;;;1.90;99.90;;;;;;5016012;28;19910;-85
2022/12/10 13:34:41;;;;;;;;;;;1.90;99.90;;;;;;5017820;28;19921;-85
2022/12/10 13:37:13;;;;;;;;;;;2.00;99.90;;;;;;5016654;28;20305;-85
2022/12/10 13:39:57;;;;;;;;;;;1.90;99.90;;;;;;5016322;28;19916;-84
2022/12/10 13:45:21;;;;;;;;;;;2.00;99.90;;;;;;5017072;28;20480;-85
2022/12/10 13:47:47;;;;;;;;;;;1.90;99.90;;;;;;5016682;28;20019;-85
2022/12/10 13:50:22;;;;;;;;;;;1.90;99.90;;;;;;5015671;28;19913;-84
2022/12/10 13:52:59;;;;;;;;;;;1.90;99.90;;;;;;5016196;28;19913;-84
2022/12/10 13:55:38;;;;;;;;;;;1.90;99.90;;;;;;5016152;28;19910;-85
2022/12/10 13:58:22;;;;;;;;;;;1.90;99.90;;;;;;5013959;28;20004;-84
2022/12/10 14:00:51;;;;;;;;;;;1.90;99.90;;;;;;5015475;28;19916;-84
2022/12/10 14:03:34;;;;;;;;;;;1.90;99.90;;;;;;5014220;28;19967;-84
2022/12/10 14:06:00;;;;;;;;;;;1.90;99.90;;;;;;5015194;28;20003;-84
2022/12/10 14:08:29;;;;;;;;;;;1.90;99.90;;;;;;5013674;28;19909;-83
2022/12/10 14:10:56;;;;;;;;;;;1.90;99.90;;;;;;5015094;28;20367;-84
2022/12/10 14:13:25;;;;;;;;;;;1.90;99.90;;;;;;5015212;28;19913;-83
2022/12/10 14:15:55;;;;;;;;;;;1.90;99.90;;;;;;5014643;28;19909;-86
2022/12/10 14:18:21;;;;;;;;;;;1.80;99.90;;;;;;5015489;28;19910;-82
2022/12/10 14:20:48;;;;;;;;;;;1.90;99.90;;;;;;5014600;28;19916;-83
2022/12/10 14:23:41;;;;;;;;;;;1.80;99.90;;;;;;5014625;28;19918;-83
2022/12/10 14:26:09;;;;;;;;;;;1.80;99.90;;;;;;5012576;28;20013;-82
2022/12/10 14:28:37;;;;;;;;;;;1.80;99.90;;;;;;5014473;28;19917;-82
2022/12/10 14:31:06;;;;;;;;;;;1.70;99.90;;;;;;5014678;28;19909;-82
2022/12/10 14:33:31;;;;;;;;;;;1.80;99.90;;;;;;5015013;28;19972;-82
2022/12/10 14:36:03;;;;;;;;;;;1.80;99.90;;;;;;5014367;28;19933;-82
2022/12/10 14:38:32;;;;;;;;;;;1.80;99.90;;;;;;5014594;28;20276;-82
2022/12/10 14:40:58;;;;;;;;;;;1.80;99.90;;;;;;5013362;28;19910;-83
2022/12/10 14:43:32;;;;;;;;;;;1.80;99.90;;;;;;5013679;28;20286;-82
2022/12/10 14:45:59;;;;;;;;;;;1.80;99.90;;;;;;5014006;28;19909;-82
2022/12/10 14:48:24;;;;;;;;;;;1.70;99.90;;;;;;5013637;28;19909;-82